Time;durP1;ratioP1;P1;durP2;ratioP2;P2;SDS_P1;SDS_P2;PMS_P1;PMS_P2;Temp;Humidity;BMP_temperature;BMP_pressure;BME280_temperature;BME280_humidity;BME280_pressure;Samples;Min_cycle;Max_cycle;Signal;HPM_P1;HPM_P2
2022/03/31 00:00:39;;;;;;;4.85;2.80;;;;;;;;;;6217159;22;20103;-85
2022/03/31 00:03:06;;;;;;;7.78;2.70;;;;;;;;;;6240153;22;20732;-84
2022/03/31 00:05:32;;;;;;;2.85;2.55;;;;;;;;;;6264517;22;20016;-85
2022/03/31 00:08:03;;;;;;;6.93;2.67;;;;;;;;;;6267804;22;20016;-86
2022/03/31 00:10:31;;;;;;;5.43;2.60;;;;;;;;;;6212324;22;20028;-84
2022/03/31 00:12:58;;;;;;;4.43;2.40;;;;;;;;;;6240140;22;20463;-85
2022/03/31 00:15:25;;;;;;;6.80;2.92;;;;;;;;;;6266111;22;20020;-84
2022/03/31 00:17:51;;;;;;;8.32;3.10;;;;;;;;;;6266597;22;20019;-85
2022/03/31 00:20:17;;;;;;;4.50;3.17;;;;;;;;;;6267695;22;20065;-84
2022/03/31 00:23:02;;;;;;;5.00;3.08;;;;;;;;;;6265500;22;20015;-87
2022/03/31 00:25:28;;;;;;;6.03;3.30;;;;;;;;;;6267561;22;20414;-83
2022/03/31 00:27:57;;;;;;;6.32;3.28;;;;;;;;;;6264661;22;20023;-84
2022/03/31 00:30:24;;;;;;;6.45;3.10;;;;;;;;;;6240446;22;20885;-84
2022/03/31 00:32:50;;;;;;;5.57;3.30;;;;;;;;;;6212896;22;20660;-84
2022/03/31 00:35:17;;;;;;;6.78;3.75;;;;;;;;;;6238849;22;20019;-84
2022/03/31 00:37:44;;;;;;;5.45;3.50;;;;;;;;;;6266361;22;20464;-84
2022/03/31 00:40:11;;;;;;;5.93;3.88;;;;;;;;;;6265709;22;20023;-84
2022/03/31 00:42:41;;;;;;;7.13;3.80;;;;;;;;;;6265931;22;20047;-84
2022/03/31 00:45:20;;;;;;;9.05;3.85;;;;;;;;;;6212786;22;20051;-84
2022/03/31 00:47:47;;;;;;;4.68;3.63;;;;;;;;;;6266451;22;20069;-85
2022/03/31 00:50:13;;;;;;;7.35;3.75;;;;;;;;;;6237660;22;20027;-85
2022/03/31 00:52:40;;;;;;;6.63;4.25;;;;;;;;;;6239010;22;20016;-86
2022/03/31 00:55:09;;;;;;;6.35;3.90;;;;;;;;;;6264144;22;20475;-84
2022/03/31 00:57:35;;;;;;;7.80;4.32;;;;;;;;;;6266603;22;20356;-84
2022/03/31 01:00:02;;;;;;;6.72;5.10;;;;;;;;;;6238263;22;20020;-84
2022/03/31 01:02:38;;;;;;;8.43;5.03;;;;;;;;;;6266514;22;20023;-84
2022/03/31 01:05:06;;;;;;;8.73;5.00;;;;;;;;;;6265650;22;20107;-84
2022/03/31 01:07:38;;;;;;;5.55;4.60;;;;;;;;;;6264566;22;20440;-84
2022/03/31 01:10:05;;;;;;;6.55;4.82;;;;;;;;;;6266462;22;20099;-84
2022/03/31 01:12:31;;;;;;;7.35;5.10;;;;;;;;;;6264618;22;20091;-83
2022/03/31 01:15:08;;;;;;;5.30;4.68;;;;;;;;;;6266526;22;20073;-84
2022/03/31 01:17:41;;;;;;;6.70;4.50;;;;;;;;;;6237573;22;20059;-84
2022/03/31 01:20:08;;;;;;;8.48;4.93;;;;;;;;;;6267251;22;20412;-87
2022/03/31 01:22:47;;;;;;;8.45;4.78;;;;;;;;;;6265555;22;20020;-87
2022/03/31 01:25:14;;;;;;;6.97;4.50;;;;;;;;;;6237545;22;20845;-87
2022/03/31 01:27:41;;;;;;;9.70;4.50;;;;;;;;;;6213057;22;20344;-88
2022/03/31 01:30:11;;;;;;;7.35;4.65;;;;;;;;;;6264996;22;20020;-87
2022/03/31 01:32:44;;;;;;;7.18;5.30;;;;;;;;;;6267876;22;20027;-88
2022/03/31 01:35:16;;;;;;;8.30;5.63;;;;;;;;;;6200485;23;20349;-88
2022/03/31 01:37:43;;;;;;;5.90;5.25;;;;;;;;;;6202294;23;20457;-87
2022/03/31 01:40:10;;;;;;;5.93;4.95;;;;;;;;;;6200277;23;20028;-88
2022/03/31 01:42:36;;;;;;;6.47;5.65;;;;;;;;;;6202918;23;20013;-88
2022/03/31 01:45:11;;;;;;;7.07;4.75;;;;;;;;;;6201505;23;20450;-88
2022/03/31 01:47:37;;;;;;;5.70;5.07;;;;;;;;;;6203855;23;20012;-85
2022/03/31 01:50:04;;;;;;;8.82;5.05;;;;;;;;;;6200295;23;20059;-86
2022/03/31 01:52:30;;;;;;;5.70;5.10;;;;;;;;;;6202114;23;20346;-85
2022/03/31 01:54:57;;;;;;;12.32;4.65;;;;;;;;;;6210484;23;20020;-85
2022/03/31 01:57:23;;;;;;;8.48;4.93;;;;;;;;;;6145763;23;20549;-83
2022/03/31 01:59:49;;;;;;;6.00;3.65;;;;;;;;;;6224159;23;20020;-84
2022/03/31 02:02:16;;;;;;;2.88;2.63;;;;;;;;;;6205935;23;20071;-87
2022/03/31 02:04:43;;;;;;;6.70;3.45;;;;;;;;;;6206558;23;20460;-85
2022/03/31 02:07:09;;;;;;;4.22;3.83;;;;;;;;;;6260213;22;20016;-85
2022/03/31 02:09:35;;;;;;;4.97;4.05;;;;;;;;;;6266802;22;20111;-86
2022/03/31 02:12:08;;;;;;;6.05;4.25;;;;;;;;;;6266504;22;20094;-88
2022/03/31 02:14:37;;;;;;;4.75;3.83;;;;;;;;;;6265939;22;20081;-84
2022/03/31 02:17:05;;;;;;;6.05;4.68;;;;;;;;;;6268647;22;20020;-84
2022/03/31 02:19:31;;;;;;;7.88;5.20;;;;;;;;;;6266748;22;20026;-84
2022/03/31 02:21:57;;;;;;;5.50;4.05;;;;;;;;;;6268645;22;20078;-83
2022/03/31 02:24:23;;;;;;;5.55;4.57;;;;;;;;;;6267017;22;20592;-82
2022/03/31 02:26:49;;;;;;;4.40;4.00;;;;;;;;;;6240307;22;20019;-84
2022/03/31 02:29:17;;;;;;;4.10;3.80;;;;;;;;;;6266708;22;20112;-83
2022/03/31 02:31:43;;;;;;;4.65;4.25;;;;;;;;;;6268283;22;20023;-83
2022/03/31 02:34:09;;;;;;;5.38;4.82;;;;;;;;;;6266868;22;20297;-83
2022/03/31 02:36:36;;;;;;;5.90;5.35;;;;;;;;;;6268288;22;20089;-83
2022/03/31 02:39:02;;;;;;;5.53;5.03;;;;;;;;;;6269147;22;20018;-83
2022/03/31 02:41:28;;;;;;;6.53;5.13;;;;;;;;;;6268744;22;20024;-83
2022/03/31 02:43:54;;;;;;;5.10;4.60;;;;;;;;;;6269297;22;20019;-83
2022/03/31 02:46:20;;;;;;;5.45;3.70;;;;;;;;;;6266343;22;20016;-83
2022/03/31 02:48:46;;;;;;;5.47;4.85;;;;;;;;;;6267901;22;20085;-84
2022/03/31 02:51:12;;;;;;;5.30;4.53;;;;;;;;;;6266309;22;20514;-84
2022/03/31 02:56:23;;;;;;;4.40;3.95;;;;;;;;;;6266512;22;20024;-85
2022/03/31 02:58:49;;;;;;;5.25;4.75;;;;;;;;;;6214925;22;20023;-84
2022/03/31 03:01:15;;;;;;;4.65;4.25;;;;;;;;;;6215900;22;20476;-83
2022/03/31 03:03:41;;;;;;;5.50;4.70;;;;;;;;;;6266502;22;20356;-83
2022/03/31 03:06:07;;;;;;;5.65;5.07;;;;;;;;;;6267680;22;20390;-83
2022/03/31 03:08:33;;;;;;;5.93;5.20;;;;;;;;;;6239320;22;20039;-83
2022/03/31 03:11:00;;;;;;;6.45;5.28;;;;;;;;;;6268333;22;20030;-84
2022/03/31 03:13:26;;;;;;;7.18;6.35;;;;;;;;;;6265315;22;20023;-83
2022/03/31 03:15:54;;;;;;;7.75;5.93;;;;;;;;;;6268820;22;20026;-83
2022/03/31 03:18:20;;;;;;;8.00;5.90;;;;;;;;;;6265694;22;20025;-82
2022/03/31 03:20:46;;;;;;;5.97;5.38;;;;;;;;;;6239511;22;20362;-83
2022/03/31 03:23:23;;;;;;;5.80;5.20;;;;;;;;;;6266221;22;20026;-83
2022/03/31 03:25:49;;;;;;;4.03;3.63;;;;;;;;;;6267086;22;20422;-83
2022/03/31 03:28:16;;;;;;;4.78;4.20;;;;;;;;;;6267322;22;20015;-83
2022/03/31 03:30:42;;;;;;;4.13;3.53;;;;;;;;;;6267494;22;20448;-83
2022/03/31 03:33:08;;;;;;;4.15;3.75;;;;;;;;;;6267477;22;20027;-84
2022/03/31 03:35:34;;;;;;;5.55;3.50;;;;;;;;;;6266023;22;20020;-85
2022/03/31 03:38:00;;;;;;;3.90;3.45;;;;;;;;;;6266912;22;20102;-83
2022/03/31 03:40:28;;;;;;;5.53;3.60;;;;;;;;;;6214719;22;20023;-84
2022/03/31 03:42:54;;;;;;;5.30;4.00;;;;;;;;;;6268293;22;20016;-83
2022/03/31 03:45:20;;;;;;;5.20;3.58;;;;;;;;;;6265307;22;20020;-83
2022/03/31 03:47:48;;;;;;;4.05;3.08;;;;;;;;;;6239171;22;20016;-83
2022/03/31 03:50:21;;;;;;;3.60;3.22;;;;;;;;;;6266708;22;20023;-84
2022/03/31 03:52:47;;;;;;;5.70;3.20;;;;;;;;;;6238227;22;20026;-84
2022/03/31 03:55:13;;;;;;;7.28;3.33;;;;;;;;;;6268537;22;20011;-83
2022/03/31 03:57:40;;;;;;;6.07;3.80;;;;;;;;;;6267287;22;20026;-82
2022/03/31 04:00:07;;;;;;;4.50;2.97;;;;;;;;;;6268730;22;20016;-84
2022/03/31 04:02:34;;;;;;;10.82;4.00;;;;;;;;;;6237319;22;20023;-83
2022/03/31 04:05:00;;;;;;;3.70;2.80;;;;;;;;;;6268106;22;20018;-83
2022/03/31 04:07:26;;;;;;;8.82;3.60;;;;;;;;;;6266588;22;20020;-83
2022/03/31 04:09:58;;;;;;;6.00;3.33;;;;;;;;;;6277885;22;20075;-84
2022/03/31 04:12:24;;;;;;;5.03;2.53;;;;;;;;;;6284922;22;20837;-84
2022/03/31 04:15:02;;;;;;;5.05;3.75;;;;;;;;;;6276358;22;20329;-84
2022/03/31 04:17:29;;;;;;;4.28;3.65;;;;;;;;;;6240112;22;20028;-84
2022/03/31 04:19:55;;;;;;;6.35;3.30;;;;;;;;;;6263846;22;20446;-83
2022/03/31 04:22:22;;;;;;;3.78;3.38;;;;;;;;;;6267166;22;20069;-83
2022/03/31 04:24:48;;;;;;;4.38;3.97;;;;;;;;;;6265136;22;20019;-83
2022/03/31 04:27:14;;;;;;;3.65;3.35;;;;;;;;;;6237061;22;20402;-83
2022/03/31 04:29:40;;;;;;;5.38;4.13;;;;;;;;;;6265364;22;20039;-84
2022/03/31 04:32:06;;;;;;;5.45;3.78;;;;;;;;;;6263514;22;20102;-83
2022/03/31 04:34:32;;;;;;;5.72;4.20;;;;;;;;;;6265934;22;20055;-83
2022/03/31 04:36:58;;;;;;;5.70;4.18;;;;;;;;;;6264861;22;20054;-84
2022/03/31 04:39:24;;;;;;;5.10;4.63;;;;;;;;;;6266441;22;20102;-85
2022/03/31 04:41:51;;;;;;;5.38;4.88;;;;;;;;;;6264652;22;20107;-83
2022/03/31 04:44:17;;;;;;;5.63;5.13;;;;;;;;;;6265666;22;20604;-84
2022/03/31 04:46:45;;;;;;;5.68;5.25;;;;;;;;;;6263400;22;20509;-83
2022/03/31 04:49:11;;;;;;;5.95;5.40;;;;;;;;;;6266569;22;20019;-85
2022/03/31 04:51:37;;;;;;;5.70;5.20;;;;;;;;;;6264417;22;20133;-85
2022/03/31 04:54:03;;;;;;;5.82;5.32;;;;;;;;;;6265861;22;20361;-83
2022/03/31 04:56:33;;;;;;;5.70;5.10;;;;;;;;;;6239060;22;20089;-84
2022/03/31 04:58:59;;;;;;;7.50;6.35;;;;;;;;;;6263016;22;20069;-84
2022/03/31 05:01:25;;;;;;;6.78;5.50;;;;;;;;;;6266252;22;20055;-84
2022/03/31 05:03:54;;;;;;;7.28;6.57;;;;;;;;;;6210631;22;20413;-84
2022/03/31 05:06:21;;;;;;;7.38;6.68;;;;;;;;;;6264760;22;20446;-84
2022/03/31 05:08:50;;;;;;;6.75;6.15;;;;;;;;;;6235374;22;20069;-85
2022/03/31 05:11:17;;;;;;;7.82;7.03;;;;;;;;;;6239799;22;20011;-83
2022/03/31 05:13:46;;;;;;;9.00;8.02;;;;;;;;;;6265665;22;20016;-85
2022/03/31 05:16:12;;;;;;;7.00;6.30;;;;;;;;;;6265865;22;20391;-85
2022/03/31 05:18:38;;;;;;;6.68;6.07;;;;;;;;;;6268029;22;20554;-84
2022/03/31 05:21:18;;;;;;;6.85;6.25;;;;;;;;;;6265766;22;20448;-84
2022/03/31 05:23:44;;;;;;;7.60;6.90;;;;;;;;;;6242046;22;20023;-84
2022/03/31 05:26:10;;;;;;;7.28;6.57;;;;;;;;;;6267394;22;20012;-84
2022/03/31 05:28:37;;;;;;;7.60;6.82;;;;;;;;;;6268983;22;20015;-84
2022/03/31 05:31:03;;;;;;;7.38;6.68;;;;;;;;;;6266149;22;20445;-84
2022/03/31 05:33:30;;;;;;;8.68;7.25;;;;;;;;;;6267501;22;20049;-84
2022/03/31 05:35:58;;;;;;;8.30;7.50;;;;;;;;;;6266895;22;20126;-84
2022/03/31 05:38:24;;;;;;;8.52;7.68;;;;;;;;;;6266537;22;20023;-87
2022/03/31 05:40:50;;;;;;;8.88;7.90;;;;;;;;;;6267905;22;20019;-84
2022/03/31 05:43:16;;;;;;;8.70;7.82;;;;;;;;;;6265601;22;20070;-84
2022/03/31 05:45:42;;;;;;;8.20;7.40;;;;;;;;;;6268016;22;20022;-84
2022/03/31 05:48:08;;;;;;;8.20;7.40;;;;;;;;;;6265811;22;20065;-84
2022/03/31 05:50:35;;;;;;;8.57;7.72;;;;;;;;;;6267807;22;20020;-84
2022/03/31 05:53:01;;;;;;;8.43;7.63;;;;;;;;;;6266253;22;20039;-86
2022/03/31 05:55:28;;;;;;;10.68;8.73;;;;;;;;;;6269523;22;20011;-84
2022/03/31 05:57:54;;;;;;;9.48;8.52;;;;;;;;;;6275197;22;20039;-84
2022/03/31 06:00:21;;;;;;;9.40;8.50;;;;;;;;;;6248800;22;20061;-86
2022/03/31 06:02:48;;;;;;;9.82;8.82;;;;;;;;;;6224434;22;20343;-86
2022/03/31 06:05:20;;;;;;;9.05;8.15;;;;;;;;;;6244398;22;20108;-84
2022/03/31 06:07:46;;;;;;;10.50;9.40;;;;;;;;;;6270743;22;20134;-84
2022/03/31 06:10:13;;;;;;;10.13;8.80;;;;;;;;;;6243673;22;20020;-82
2022/03/31 06:12:39;;;;;;;9.38;8.43;;;;;;;;;;6240754;22;20012;-84
2022/03/31 06:15:06;;;;;;;10.77;9.68;;;;;;;;;;6268518;22;20641;-84
2022/03/31 06:17:32;;;;;;;10.82;9.70;;;;;;;;;;6270420;22;20094;-85
2022/03/31 06:19:58;;;;;;;10.65;9.57;;;;;;;;;;6269068;22;20415;-82
2022/03/31 06:22:24;;;;;;;11.65;10.45;;;;;;;;;;6247865;22;20413;-85
2022/03/31 06:24:50;;;;;;;13.70;9.98;;;;;;;;;;6286909;22;20023;-84
2022/03/31 06:27:16;;;;;;;11.02;9.85;;;;;;;;;;6291066;22;20077;-85
2022/03/31 06:29:45;;;;;;;11.98;10.70;;;;;;;;;;6273097;22;20375;-85
2022/03/31 06:32:12;;;;;;;11.55;10.32;;;;;;;;;;6269036;22;20124;-84
2022/03/31 06:34:39;;;;;;;10.75;9.65;;;;;;;;;;6272596;22;20015;-85
2022/03/31 06:37:05;;;;;;;11.27;9.90;;;;;;;;;;6268132;22;20019;-84
2022/03/31 06:39:31;;;;;;;12.43;10.88;;;;;;;;;;6243143;22;20433;-84
2022/03/31 06:41:57;;;;;;;12.07;10.85;;;;;;;;;;6268434;22;20050;-84
2022/03/31 06:44:23;;;;;;;12.20;10.90;;;;;;;;;;6268162;22;20073;-85
2022/03/31 06:46:51;;;;;;;10.02;8.93;;;;;;;;;;6269265;22;20015;-85
2022/03/31 06:49:17;;;;;;;10.93;9.73;;;;;;;;;;6266200;22;20023;-85
2022/03/31 06:51:43;;;;;;;11.60;10.30;;;;;;;;;;6217250;22;20020;-84
2022/03/31 06:54:09;;;;;;;16.42;11.45;;;;;;;;;;6266589;22;20090;-84
2022/03/31 06:56:36;;;;;;;12.85;10.20;;;;;;;;;;6269144;22;20011;-84
2022/03/31 06:59:02;;;;;;;14.45;11.07;;;;;;;;;;6266928;22;20040;-84
2022/03/31 07:01:29;;;;;;;12.20;10.90;;;;;;;;;;6268419;22;20117;-85
2022/03/31 07:03:55;;;;;;;13.63;11.38;;;;;;;;;;6239842;22;20098;-85
2022/03/31 07:06:22;;;;;;;14.40;11.90;;;;;;;;;;6268278;22;20023;-85
2022/03/31 07:08:48;;;;;;;14.32;12.80;;;;;;;;;;6241529;22;20448;-85
2022/03/31 07:11:15;;;;;;;14.13;12.55;;;;;;;;;;6267653;22;20095;-85
2022/03/31 07:13:43;;;;;;;15.55;13.38;;;;;;;;;;6268848;22;20107;-84
2022/03/31 07:16:09;;;;;;;13.27;11.85;;;;;;;;;;6267263;22;20023;-85
2022/03/31 07:18:35;;;;;;;18.17;14.48;;;;;;;;;;6269338;22;20561;-85
2022/03/31 07:21:02;;;;;;;19.27;14.05;;;;;;;;;;6266090;22;20542;-84
2022/03/31 07:23:28;;;;;;;18.67;15.07;;;;;;;;;;6267322;22;20022;-84
2022/03/31 07:25:55;;;;;;;13.90;12.43;;;;;;;;;;6266898;22;20022;-83
2022/03/31 07:28:21;;;;;;;15.80;13.10;;;;;;;;;;6268569;22;20110;-82
2022/03/31 07:30:47;;;;;;;14.70;11.30;;;;;;;;;;6265215;22;20425;-85
2022/03/31 07:33:14;;;;;;;23.25;12.70;;;;;;;;;;6266228;22;20020;-84
2022/03/31 07:35:42;;;;;;;12.57;10.30;;;;;;;;;;6265970;22;20095;-88
2022/03/31 07:38:08;;;;;;;11.93;10.07;;;;;;;;;;6236106;22;20022;-89
2022/03/31 07:40:36;;;;;;;11.15;10.05;;;;;;;;;;6237439;22;20185;-86
2022/03/31 07:43:02;;;;;;;10.35;9.20;;;;;;;;;;6234192;22;20806;-86
2022/03/31 07:45:34;;;;;;;12.25;8.63;;;;;;;;;;6211660;22;20019;-86
2022/03/31 07:48:00;;;;;;;10.23;8.60;;;;;;;;;;6234868;22;20069;-90
2022/03/31 07:50:26;;;;;;;9.35;8.35;;;;;;;;;;6217798;22;20016;-88
2022/03/31 07:52:52;;;;;;;10.20;8.80;;;;;;;;;;6244382;22;20403;-86
2022/03/31 07:55:19;;;;;;;13.10;10.07;;;;;;;;;;6266310;22;20733;-87
2022/03/31 07:57:45;;;;;;;11.13;9.77;;;;;;;;;;6265555;22;20043;-87
2022/03/31 08:00:13;;;;;;;13.52;11.43;;;;;;;;;;6262643;22;20091;-86
2022/03/31 08:02:40;;;;;;;12.32;10.50;;;;;;;;;;6265396;22;20448;-85
2022/03/31 08:05:06;;;;;;;14.10;10.52;;;;;;;;;;6264823;22;20019;-86
2022/03/31 08:07:32;;;;;;;10.68;9.57;;;;;;;;;;6267130;22;20333;-83
2022/03/31 08:09:58;;;;;;;13.68;9.25;;;;;;;;;;6265180;22;20695;-85
2022/03/31 08:12:24;;;;;;;11.27;10.07;;;;;;;;;;6239367;22;20812;-86
2022/03/31 08:14:50;;;;;;;10.18;8.63;;;;;;;;;;6265914;22;20023;-87
2022/03/31 08:17:17;;;;;;;10.13;8.57;;;;;;;;;;6213767;22;20051;-85
2022/03/31 08:19:43;;;;;;;9.38;8.32;;;;;;;;;;6240729;22;20023;-88
2022/03/31 08:22:11;;;;;;;9.48;8.40;;;;;;;;;;6238508;22;20035;-88
2022/03/31 08:24:37;;;;;;;9.63;8.00;;;;;;;;;;6268693;22;20093;-85
2022/03/31 08:27:05;;;;;;;9.50;8.57;;;;;;;;;;6266805;22;20509;-85
2022/03/31 08:29:31;;;;;;;9.60;8.60;;;;;;;;;;6267526;22;20051;-86
2022/03/31 08:31:58;;;;;;;10.00;7.60;;;;;;;;;;6266265;22;20023;-88
2022/03/31 08:34:24;;;;;;;11.40;8.82;;;;;;;;;;6270455;22;20461;-86
2022/03/31 08:36:50;;;;;;;8.73;7.90;;;;;;;;;;6198525;22;20027;-87
2022/03/31 08:39:16;;;;;;;7.00;6.30;;;;;;;;;;6228672;22;20011;-86
2022/03/31 08:41:44;;;;;;;7.50;6.70;;;;;;;;;;6275744;22;20019;-87
2022/03/31 08:44:13;;;;;;;8.73;6.70;;;;;;;;;;6265676;22;20112;-85
2022/03/31 08:46:39;;;;;;;6.88;5.97;;;;;;;;;;6214700;22;20038;-86
2022/03/31 08:49:07;;;;;;;7.10;6.40;;;;;;;;;;6263330;22;20016;-87
2022/03/31 08:51:34;;;;;;;8.05;7.25;;;;;;;;;;6240280;22;20030;-87
2022/03/31 08:54:00;;;;;;;7.40;6.70;;;;;;;;;;6237743;22;20016;-86
2022/03/31 08:56:26;;;;;;;10.27;6.63;;;;;;;;;;6237955;22;20772;-86
2022/03/31 08:58:53;;;;;;;6.90;6.22;;;;;;;;;;6209367;23;20020;-85
2022/03/31 09:01:19;;;;;;;6.70;5.75;;;;;;;;;;6233143;23;20031;-87
2022/03/31 09:03:57;;;;;;;7.30;6.60;;;;;;;;;;6234976;23;20099;-87
2022/03/31 09:06:30;;;;;;;8.95;7.15;;;;;;;;;;6232434;23;20503;-87
2022/03/31 09:08:57;;;;;;;7.03;6.32;;;;;;;;;;6236179;23;20056;-83
2022/03/31 09:11:33;;;;;;;6.25;5.65;;;;;;;;;;6208272;23;20052;-87
2022/03/31 09:14:00;;;;;;;7.68;6.93;;;;;;;;;;6183189;23;20463;-85
2022/03/31 09:16:38;;;;;;;6.68;6.03;;;;;;;;;;6207032;23;20027;-89
2022/03/31 09:19:15;;;;;;;10.82;6.65;;;;;;;;;;6235590;23;20016;-85
2022/03/31 09:21:54;;;;;;;9.57;6.43;;;;;;;;;;6236433;23;20027;-89
2022/03/31 09:24:21;;;;;;;6.25;5.65;;;;;;;;;;6233725;23;20016;-87
2022/03/31 09:26:48;;;;;;;6.78;5.53;;;;;;;;;;6234236;23;20560;-87
2022/03/31 09:29:15;;;;;;;5.78;5.20;;;;;;;;;;6234036;23;20035;-84
2022/03/31 09:31:41;;;;;;;7.07;5.35;;;;;;;;;;6234980;23;20035;-86
2022/03/31 09:34:08;;;;;;;6.00;4.93;;;;;;;;;;6184502;23;20341;-87
2022/03/31 09:36:36;;;;;;;9.95;7.53;;;;;;;;;;6231108;23;20471;-87
2022/03/31 09:39:13;;;;;;;6.72;5.97;;;;;;;;;;6208963;23;20066;-88
2022/03/31 09:41:40;;;;;;;7.60;6.38;;;;;;;;;;6232294;23;20812;-85
2022/03/31 09:44:07;;;;;;;8.43;5.82;;;;;;;;;;6234969;23;20020;-84
2022/03/31 09:46:39;;;;;;;6.25;5.60;;;;;;;;;;6233919;23;20440;-86
2022/03/31 09:49:11;;;;;;;6.45;5.35;;;;;;;;;;6234193;23;20028;-85
2022/03/31 09:51:37;;;;;;;6.85;6.13;;;;;;;;;;6234415;23;20455;-86
2022/03/31 09:54:04;;;;;;;6.07;5.47;;;;;;;;;;6206505;23;20098;-84
2022/03/31 09:56:34;;;;;;;7.63;6.00;;;;;;;;;;6236244;23;20028;-88
2022/03/31 09:59:01;;;;;;;6.47;5.85;;;;;;;;;;6233540;23;20025;-85
2022/03/31 10:01:28;;;;;;;6.72;6.03;;;;;;;;;;6236422;23;20983;-86
2022/03/31 10:03:56;;;;;;;6.85;6.15;;;;;;;;;;6232320;23;20093;-87
2022/03/31 10:06:24;;;;;;;5.90;5.13;;;;;;;;;;6234334;23;20016;-83
2022/03/31 10:08:50;;;;;;;15.07;5.07;;;;;;;;;;6231561;23;20336;-87
2022/03/31 10:11:22;;;;;;;6.13;5.53;;;;;;;;;;6231447;23;20024;-86
2022/03/31 10:13:48;;;;;;;7.82;6.03;;;;;;;;;;6233739;23;20503;-84
2022/03/31 10:16:16;;;;;;;8.02;6.20;;;;;;;;;;6233696;23;20016;-85
2022/03/31 10:18:45;;;;;;;7.82;6.65;;;;;;;;;;6236545;23;20016;-85
2022/03/31 10:21:11;;;;;;;9.20;5.88;;;;;;;;;;6234175;23;20069;-86
2022/03/31 10:26:34;;;;;;;10.93;6.18;;;;;;;;;;6235959;23;20021;-85
2022/03/31 10:29:10;;;;;;;7.32;6.53;;;;;;;;;;6204966;23;20062;-86
2022/03/31 10:31:37;;;;;;;7.72;5.82;;;;;;;;;;6232188;23;20019;-84
2022/03/31 10:34:14;;;;;;;7.40;6.53;;;;;;;;;;6234474;23;20024;-84
2022/03/31 10:36:40;;;;;;;8.48;6.40;;;;;;;;;;6236204;23;20067;-82
2022/03/31 10:39:15;;;;;;;7.80;7.00;;;;;;;;;;6234455;23;20424;-85
2022/03/31 10:41:43;;;;;;;7.25;6.53;;;;;;;;;;6212774;23;20510;-84
2022/03/31 10:44:14;;;;;;;8.63;6.80;;;;;;;;;;6237925;23;20070;-86
2022/03/31 10:46:42;;;;;;;6.82;6.03;;;;;;;;;;6236638;23;20413;-85
2022/03/31 10:49:13;;;;;;;8.77;5.80;;;;;;;;;;6246081;23;20352;-85
2022/03/31 10:51:43;;;;;;;7.25;6.32;;;;;;;;;;6251759;23;20460;-85
2022/03/31 10:54:11;;;;;;;6.45;5.57;;;;;;;;;;6250446;23;20392;-86
2022/03/31 10:56:38;;;;;;;9.20;7.72;;;;;;;;;;6238955;23;20083;-86
2022/03/31 10:59:06;;;;;;;11.20;7.57;;;;;;;;;;6210781;23;20022;-85
2022/03/31 11:01:34;;;;;;;13.25;8.32;;;;;;;;;;6238742;23;20024;-88
2022/03/31 11:04:09;;;;;;;17.13;8.52;;;;;;;;;;6235783;23;20019;-87
2022/03/31 11:06:49;;;;;;;11.32;9.50;;;;;;;;;;6236766;23;20031;-86
2022/03/31 11:09:22;;;;;;;13.48;10.65;;;;;;;;;;6234788;23;20108;-89
2022/03/31 11:11:52;;;;;;;14.13;9.18;;;;;;;;;;6237906;23;20028;-87
2022/03/31 11:14:19;;;;;;;12.02;8.82;;;;;;;;;;6237008;23;20024;-88
2022/03/31 11:16:46;;;;;;;9.00;6.93;;;;;;;;;;6235628;23;20008;-88
2022/03/31 11:19:13;;;;;;;9.48;6.55;;;;;;;;;;6237621;23;20023;-89
2022/03/31 11:21:40;;;;;;;10.50;7.63;;;;;;;;;;6233515;23;20043;-89
2022/03/31 11:24:07;;;;;;;11.27;8.45;;;;;;;;;;6236022;23;20615;-88
2022/03/31 11:26:44;;;;;;;9.98;8.13;;;;;;;;;;6234054;23;20016;-87
2022/03/31 11:29:11;;;;;;;8.52;6.68;;;;;;;;;;6236958;23;20074;-91
2022/03/31 11:31:37;;;;;;;13.45;7.45;;;;;;;;;;6235169;23;20012;-92
2022/03/31 11:34:15;;;;;;;10.90;7.53;;;;;;;;;;6208833;23;20558;-90
2022/03/31 11:36:41;;;;;;;10.35;8.35;;;;;;;;;;6236834;23;20393;-91
2022/03/31 11:39:07;;;;;;;11.75;8.70;;;;;;;;;;6182456;23;20061;-88
2022/03/31 11:41:37;;;;;;;17.30;9.38;;;;;;;;;;6237009;23;20023;-91
2022/03/31 11:44:04;;;;;;;12.65;9.57;;;;;;;;;;6235032;23;20047;-88
2022/03/31 11:46:43;;;;;;;12.93;9.32;;;;;;;;;;6237218;23;20050;-86
2022/03/31 11:49:13;;;;;;;12.80;9.52;;;;;;;;;;6231831;23;20095;-89
2022/03/31 11:51:39;;;;;;;10.35;8.18;;;;;;;;;;6234494;23;20103;-88
2022/03/31 11:54:09;;;;;;;10.73;8.05;;;;;;;;;;6233469;23;20031;-88
2022/03/31 11:56:35;;;;;;;15.07;10.57;;;;;;;;;;6234078;23;20060;-88
2022/03/31 11:59:03;;;;;;;16.25;11.13;;;;;;;;;;6260085;22;20131;-86
2022/03/31 12:01:33;;;;;;;10.95;7.82;;;;;;;;;;6230404;23;20523;-87
2022/03/31 12:03:59;;;;;;;12.10;10.68;;;;;;;;;;6235645;23;20023;-89
2022/03/31 12:06:26;;;;;;;12.30;10.40;;;;;;;;;;6255945;22;20016;-89
2022/03/31 12:08:55;;;;;;;10.20;9.10;;;;;;;;;;6237635;23;20035;-88
2022/03/31 12:11:24;;;;;;;16.45;11.55;;;;;;;;;;6246207;23;20034;-90
2022/03/31 12:13:52;;;;;;;14.48;10.77;;;;;;;;;;6256634;23;20016;-88
2022/03/31 12:16:20;;;;;;;14.52;11.73;;;;;;;;;;6253353;22;20024;-89
2022/03/31 12:18:52;;;;;;;13.82;11.57;;;;;;;;;;6247510;23;20022;-90
2022/03/31 12:21:18;;;;;;;13.95;11.18;;;;;;;;;;6263004;22;20020;-88
2022/03/31 12:23:45;;;;;;;12.65;10.88;;;;;;;;;;6235728;23;20024;-87
2022/03/31 12:26:18;;;;;;;13.13;11.73;;;;;;;;;;6264642;22;20020;-88
2022/03/31 12:28:44;;;;;;;12.38;10.70;;;;;;;;;;6232297;23;20016;-88
2022/03/31 12:31:29;;;;;;;13.10;10.88;;;;;;;;;;6260556;22;20023;-88
2022/03/31 12:33:56;;;;;;;14.13;11.27;;;;;;;;;;6231616;23;20031;-90
2022/03/31 12:36:27;;;;;;;13.85;11.48;;;;;;;;;;6235060;23;20055;-89
2022/03/31 12:38:59;;;;;;;14.05;11.63;;;;;;;;;;6233865;23;20024;-89
2022/03/31 12:41:25;;;;;;;18.80;13.15;;;;;;;;;;6257464;22;20028;-89
2022/03/31 12:44:10;;;;;;;15.15;13.02;;;;;;;;;;6234615;23;20044;-90
2022/03/31 12:46:38;;;;;;;17.85;13.93;;;;;;;;;;6233211;23;20192;-88
2022/03/31 12:49:07;;;;;;;15.55;13.35;;;;;;;;;;6260316;22;20417;-89
2022/03/31 12:52:22;;;;;;;17.02;13.77;;;2.00;99.90;;;;;;6231057;23;20463;-90
2022/03/31 12:54:48;;;;;;;;;;;;;;;;;;6261010;22;20030;-89
2022/03/31 13:00:14;;;;;;;19.05;13.20;;;;;;;;;;6166851;23;20126;-89
2022/03/31 13:08:15;;;;;;;14.93;12.82;;;;;;;;;;6197120;22;20057;-89
2022/03/31 13:11:10;;;;;;;17.42;12.85;;;;;;;;;;6233950;22;20076;-89
2022/03/31 13:13:37;;;;;;;17.88;12.82;;;;;;;;;;6244599;22;20062;-88
2022/03/31 13:16:05;;;;;;;17.00;12.05;;;;;;;;;;6243581;22;20439;-88
2022/03/31 13:18:34;;;;;;;20.85;11.82;;;;;;;;;;6243680;22;20520;-88
2022/03/31 13:21:10;;;;;;;18.00;10.88;;;;;;;;;;6242563;22;20020;-89
2022/03/31 13:23:58;;;;;;;17.40;11.82;;;;;;;;;;6243862;22;20090;-88
2022/03/31 13:26:24;;;;;;;16.60;10.93;;;;;;;;;;6266605;22;20023;-88
2022/03/31 13:32:34;;;;;;;17.48;11.77;;;;;;;;;;6270673;22;20161;-88
2022/03/31 13:35:00;;;;;;;14.20;10.15;;;;;;;;;;6269386;22;20020;-87
2022/03/31 13:40:49;;;;;;;22.00;11.30;;;;;;;;;;6239901;22;20093;-89
2022/03/31 13:43:18;;;;;;;18.45;10.25;;;;;;;;;;6212045;22;20394;-89
2022/03/31 13:48:32;;;;;;;16.67;11.05;;;;;;;;;;6206764;22;20364;-87
2022/03/31 13:51:01;;;;;;;17.83;10.52;;;;;;;;;;6155076;23;20028;-88
2022/03/31 13:53:45;;;;;;;16.73;10.70;;;;;;;;;;6153538;23;20409;-87
2022/03/31 13:56:18;;;;;;;15.55;10.13;;;;;;;;;;6179733;23;20021;-88
2022/03/31 14:02:13;;;;;;;18.70;11.13;;;;;;;;;;6180617;23;20024;-88
2022/03/31 14:04:40;;;;;;;17.75;11.15;;;;;;;;;;6152061;23;20024;-88
2022/03/31 14:07:36;;;;;;;13.70;10.57;;;;;;;;;;6173086;23;20035;-88
2022/03/31 14:10:18;;;;;;;16.48;9.32;;;;;;;;;;6170466;23;20457;-89
2022/03/31 14:16:20;;;;;;;17.35;10.73;;;;;;;;;;6184931;23;20119;-88
2022/03/31 14:21:51;;;;;;;15.20;10.40;;;;;;;;;;6221715;23;20082;-88
2022/03/31 14:24:19;;;;;;;17.35;10.10;;;;;;;;;;6240906;23;20476;-88
2022/03/31 14:26:46;;;;;;;16.10;8.98;;;;;;;;;;6189952;23;20061;-87
2022/03/31 14:29:13;;;;;;;14.93;9.23;;;;;;;;;;6211091;23;20020;-87
2022/03/31 14:31:59;;;;;;;10.30;7.35;;;;;;;;;;6211612;23;20035;-88
2022/03/31 14:34:25;;;;;;;14.43;8.75;;;;;;;;;;6212329;23;20052;-88
2022/03/31 14:36:53;;;;;;;13.43;8.90;;;;;;;;;;6238759;23;20489;-87
2022/03/31 14:39:20;;;;;;;14.77;8.15;;;;;;;;;;6236905;23;20016;-86
2022/03/31 14:41:48;;;;;;;15.13;9.35;;;;;;;;;;6209829;23;20103;-87
2022/03/31 14:44:24;;;;;;;15.60;8.52;;;;;;;;;;6237587;23;20341;-86
2022/03/31 14:47:06;;;;;;;7.80;5.95;;;;;;;;;;6232033;23;20020;-86
2022/03/31 14:49:32;;;;;;;13.93;7.47;;;;;;;;;;6237937;23;20348;-87
2022/03/31 14:51:59;;;;;;;10.75;6.57;;;;;;;;;;6211094;23;20039;-88
2022/03/31 14:54:25;;;;;;;12.02;6.55;;;;;;;;;;6212580;23;20063;-86
2022/03/31 14:56:57;;;;;;;13.13;7.50;;;;;;;;;;6236490;23;20441;-86
2022/03/31 14:59:23;;;;;;;9.38;6.85;;;;;;;;;;6240298;23;20024;-86
2022/03/31 15:01:49;;;;;;;10.88;6.82;;;;;;;;;;6235440;23;20106;-86
2022/03/31 15:04:17;;;;;;;10.20;5.30;;;;;;;;;;6214139;23;20302;-86
2022/03/31 15:06:47;;;;;;;7.82;5.85;;;;;;;;;;6237224;23;20028;-87
2022/03/31 15:15:13;;;;;;;7.78;4.20;;;;;;;;;;6246297;23;20050;-86
2022/03/31 15:17:46;;;;;;;6.82;4.53;;;;;;;;;;6230483;23;20012;-85
2022/03/31 15:20:12;;;;;;;7.20;3.35;;;;;;;;;;6258030;22;20019;-86
2022/03/31 15:22:41;;;;;;;6.70;4.00;;;;;;;;;;6246269;22;20024;-87